Private Wetterstation Sandau
Wetterdaten: Mrz 2012
Datum Temp. A. Feuchte A. Luftdruck Regen Wind Richtung Taupunkt Windchill
01.03.2012 9,1 C 88 % 1025,1 hPa 0,5 l/m 9,6 km/h (2 Bft) W 7,1 C 7,6 C
02.03.2012 6,0 C 86 % 1029,3 hPa 0,5 l/m 1,6 km/h (1 Bft) NO 3,9 C 6,0 C
03.03.2012 4,5 C 66 % 1027,7 hPa 0,0 l/m 9,2 km/h (2 Bft) O-SO -1,8 C 3,1 C
04.03.2012 4,2 C 64 % 1023,0 hPa 0,0 l/m 6,6 km/h (2 Bft) O-SO -2,0 C 2,5 C
05.03.2012 4,2 C 55 % 1022,8 hPa 0,0 l/m 9,9 km/h (2 Bft) O-SO -4,4 C 2,1 C
06.03.2012 1,7 C 62 % 1030,4 hPa 0,0 l/m 9,9 km/h (2 Bft) O-SO -5,0 C -1,1 C
07.03.2012 4,3 C 64 % 1019,3 hPa 0,5 l/m 6,7 km/h (2 Bft) SO -2,0 C 2,7 C
08.03.2012 4,9 C 74 % 1025,5 hPa 4,1 l/m 3,5 km/h (1 Bft) W-NW 0,5 C 4,6 C
09.03.2012 6,6 C 73 % 1034,7 hPa 0,0 l/m 12,3 km/h (3 Bft) W-SW 2,0 C 4,3 C
10.03.2012 8,9 C 76 % 1029,4 hPa 0,0 l/m 14,5 km/h (3 Bft) W 4,9 C 6,9 C
11.03.2012 7,8 C 83 % 1028,5 hPa 0,0 l/m 8,2 km/h (2 Bft) W-NW 5,0 C 6,4 C
12.03.2012 8,5 C 83 % 1027,7 hPa 0,0 l/m 10,0 km/h (2 Bft) W-NW 5,7 C 7,4 C
13.03.2012 8,1 C 80 % 1030,3 hPa 0,0 l/m 8,5 km/h (2 Bft) W-NW 4,7 C 6,8 C
14.03.2012 7,9 C 77 % 1030,7 hPa 0,0 l/m 7,8 km/h (2 Bft) W 4,2 C 6,9 C
15.03.2012 7,9 C 72 % 1028,0 hPa 0,0 l/m 4,3 km/h (1 Bft) W-SW 3,1 C 7,9 C
16.03.2012 10,1 C 68 % 1019,8 hPa 0,0 l/m 1,7 km/h (1 Bft) SO 4,0 C 10,1 C
17.03.2012 9,3 C 76 % 1016,0 hPa 0,0 l/m 4,6 km/h (1 Bft) W 5,2 C 9,0 C
18.03.2012 9,6 C 76 % 1014,5 hPa 2,6 l/m 15,6 km/h (3 Bft) W-SW 5,5 C 7,8 C
19.03.2012 7,3 C 67 % 1029,1 hPa 0,0 l/m 8,1 km/h (2 Bft) W 1,3 C 6,3 C
20.03.2012 9,8 C 69 % 1033,1 hPa 0,0 l/m 13,2 km/h (3 Bft) W-SW 4,1 C 8,9 C
21.03.2012 12,5 C 74 % 1035,7 hPa 0,5 l/m 4,4 km/h (1 Bft) W 7,9 C 12,4 C
22.03.2012 10,9 C 72 % 1033,1 hPa 0,0 l/m 0,0 km/h (0 Bft) W 5,7 C 10,9 C
23.03.2012 11,8 C 72 % 1028,7 hPa 0,0 l/m 1,0 km/h (0 Bft) N-NO 6,7 C 11,8 C
24.03.2012 10,6 C 69 % 1027,6 hPa 0,5 l/m 2,8 km/h (1 Bft) N-NO 4,9 C 10,6 C
25.03.2012 9,4 C 67 % 1031,3 hPa 0,0 l/m 4,2 km/h (1 Bft) W-NW 3,3 C 9,2 C
26.03.2012 9,4 C 66 % 1034,3 hPa 0,0 l/m 3,9 km/h (1 Bft) O-SO 3,2 C 9,4 C
27.03.2012 11,4 C 72 % 1030,3 hPa 0,5 l/m 4,5 km/h (1 Bft) W-NW 6,4 C 10,9 C
28.03.2012 13,2 C 56 % 1023,3 hPa 0,0 l/m 18,7 km/h (3 Bft) W 3,9 C 12,9 C
29.03.2012 8,4 C 71 % 1013,7 hPa 0,0 l/m 19,3 km/h (3 Bft) W-NW 3,5 C 5,5 C
30.03.2012 8,8 C 73 % 1010,0 hPa 0,5 l/m 15,6 km/h (3 Bft) W-NW 4,2 C 6,3 C
31.03.2012 5,4 C 64 % 1008,5 hPa 1,0 l/m 11,8 km/h (2 Bft) W-NW -0,9 C 3,7 C
Min-Datum 07.03.12 28.03.12 31.03.12 10 Tage 01.03.12 - 07.03.12 06.03.12
Min-Zeit 06:47 16:07 08:17 - 00:32 - 06:47 07:27
Minimum -2,6 C 33 % 1001,5 hPa - 0,0 km/h (0 Bft) - -7,1 C -7,1 C
Max-Datum 28.03.12 01.03.12 09.03.12 08.03.12 18.03.12 - 23.03.12 28.03.12
Max-Zeit 15:52 01:47 09:47 02:07 21:22 - 13:47 15:52
Maximum 19,5 C 93 % 1037,0 hPa 4,1 l/m 40,7 km/h
W-SW (6 Bft)
- 9,9 C 19,5 C
Durchschnitt 8,1 C 71 % 1025,9 hPa #11,4 l/m 8,1 km/h (2 Bft) W-NW 3,1 C 7,1 C

Durchschnitt Minimum Temp.4,4 C
Durchschnitt Maximum Temp.12,2 C
(c) by David Heller